Terminal Aerodrome Forecast
Issued by NWS Twin Cities, MN

Home | Current Version | Previous Version | Text Only | Print | Product List | Glossary On
Versions: 1 2 3 4 5 6 7 8 9 10 11 12 13 14 15 16 17 18 19 20
000
FTUS43 KMPX 031944 AAA
TAFSTC
TAF AMD
KSTC 031944Z 0320/0418 31022G28KT P6SM SCT025
      TEMPO 0320/0322 6SM BLSN BKN025
     FM040100 30017G25KT P6SM SKC
     FM040600 29010KT P6SM SKC=

USA.gov is the U.S. government's official web portal to all federal, state and local government web resources and services.